Time;durP1;ratioP1;P1;durP2;ratioP2;P2;SDS_P1;SDS_P2;PMS_P1;PMS_P2;Temp;Humidity;BMP_temperature;BMP_pressure;BME280_temperature;BME280_humidity;BME280_pressure;Samples;Min_cycle;Max_cycle;Signal;HPM_P1;HPM_P2
2023/09/07 00:01:01;;;;;;;7.87;3.03;;;;;;;19.22;72.70;101497.31;7388158;19;20407;-78
2023/09/07 00:03:30;;;;;;;6.30;2.97;;;;;;;19.19;72.84;101495.03;7389538;19;21017;-78
2023/09/07 00:05:57;;;;;;;6.18;2.78;;;;;;;19.15;72.87;101498.16;7389207;19;20362;-78
2023/09/07 00:08:25;;;;;;;5.15;2.92;;;;;;;19.10;72.84;101500.63;7392226;19;20360;-78
2023/09/07 00:10:52;;;;;;;6.87;3.07;;;;;;;19.09;73.30;101499.00;7390895;19;20488;-78
2023/09/07 00:13:19;;;;;;;5.32;2.90;;;;;;;19.07;73.25;101505.63;7391198;19;20385;-78
2023/09/07 00:15:45;;;;;;;5.80;2.90;;;;;;;19.02;73.70;101502.75;7391916;19;20699;-78
2023/09/07 00:18:12;;;;;;;3.80;2.85;;;;;;;18.98;73.66;101507.72;7383457;19;20356;-78
2023/09/07 00:20:40;;;;;;;4.63;2.70;;;;;;;18.95;73.46;101508.13;7391149;19;20420;-78
2023/09/07 00:23:07;;;;;;;6.47;3.13;;;;;;;18.91;73.69;101504.22;7387709;19;20373;-78
2023/09/07 00:25:34;;;;;;;4.77;2.80;;;;;;;18.85;74.21;101503.22;7387170;19;20407;-78
2023/09/07 00:28:01;;;;;;;5.32;2.70;;;;;;;18.82;74.18;101498.25;7393671;19;20861;-78
2023/09/07 00:30:28;;;;;;;3.90;2.50;;;;;;;18.78;74.28;101506.91;7389775;19;20676;-78
2023/09/07 00:32:55;;;;;;;6.75;3.28;;;;;;;18.72;74.46;101500.50;7390425;19;20436;-78
2023/09/07 00:35:21;;;;;;;6.78;3.40;;;;;;;18.69;74.60;101498.25;7393037;19;20364;-78
2023/09/07 00:37:48;;;;;;;4.93;3.10;;;;;;;18.65;75.01;101500.50;7387585;19;20324;-78
2023/09/07 00:40:15;;;;;;;5.30;3.17;;;;;;;18.62;75.33;101498.25;7385315;19;20743;-78
2023/09/07 00:42:42;;;;;;;6.10;3.80;;;;;;;18.58;75.25;101497.00;7385725;19;20394;-78
2023/09/07 00:45:09;;;;;;;6.18;3.22;;;;;;;18.56;75.68;101495.56;7392492;19;20389;-78
2023/09/07 00:47:36;;;;;;;8.75;4.68;;;;;;;18.51;75.54;101501.59;7389842;19;20389;-78
2023/09/07 00:50:05;;;;;;;7.05;3.60;;;;;;;18.46;76.12;101509.41;7386259;19;20369;-78
2023/09/07 00:52:34;;;;;;;5.88;3.30;;;;;;;18.44;76.51;101501.56;7387826;19;20364;-78
2023/09/07 00:55:04;;;;;;;4.90;3.20;;;;;;;18.43;76.46;101499.09;7392264;19;20688;-78
2023/09/07 00:57:31;;;;;;;5.00;3.38;;;;;;;18.40;76.45;101496.81;7387853;19;20372;-78
2023/09/07 00:59:58;;;;;;;5.30;3.30;;;;;;;18.37;76.57;101497.25;7382362;19;20896;-78
2023/09/07 01:02:25;;;;;;;6.72;3.85;;;;;;;18.33;76.76;101488.75;7386449;19;20450;-78
2023/09/07 01:04:53;;;;;;;5.38;3.40;;;;;;;18.32;77.22;101497.88;7389762;19;20371;-79
2023/09/07 01:07:29;;;;;;;8.15;3.35;;;;;;;18.28;77.05;101492.06;7392925;19;20385;-78
2023/09/07 01:09:59;;;;;;;5.53;3.30;;;;;;;18.27;77.17;101489.59;7389498;19;20364;-78
2023/09/07 01:12:27;;;;;;;5.13;3.47;;;;;;;18.23;77.51;101488.34;7386665;19;20348;-78
2023/09/07 01:14:54;;;;;;;6.05;3.25;;;;;;;18.20;77.41;101492.28;7391328;19;20360;-78
2023/09/07 01:17:21;;;;;;;4.70;3.00;;;;;;;18.16;77.37;101490.22;7382953;19;20433;-79
2023/09/07 01:19:50;;;;;;;8.05;3.40;;;;;;;18.10;77.61;101484.59;7387225;19;20428;-78
2023/09/07 01:22:24;;;;;;;6.43;3.53;;;;;;;18.09;77.74;101492.88;7388462;19;20408;-78
2023/09/07 01:24:52;;;;;;;6.13;3.38;;;;;;;18.05;77.89;101491.66;7391624;19;20863;-78
2023/09/07 01:27:19;;;;;;;4.93;3.40;;;;;;;18.03;77.81;101488.34;7388412;19;20374;-79
2023/09/07 01:29:46;;;;;;;7.37;3.43;;;;;;;18.00;78.27;101483.34;7390295;19;20342;-79
2023/09/07 01:32:13;;;;;;;6.80;3.27;;;;;;;17.98;78.34;101480.91;7386857;19;20893;-78
2023/09/07 01:34:40;;;;;;;5.80;3.42;;;;;;;17.96;78.74;101479.44;7387954;19;20484;-78
2023/09/07 01:37:08;;;;;;;8.23;3.83;;;;;;;17.92;78.57;101487.09;7382284;19;20383;-78
2023/09/07 01:39:35;;;;;;;7.95;3.50;;;;;;;17.88;79.08;101483.16;7389197;19;20360;-78
2023/09/07 01:42:02;;;;;;;5.65;3.42;;;;;;;17.82;79.01;101476.75;7388022;19;20348;-78
2023/09/07 01:44:29;;;;;;;6.03;3.50;;;;;;;17.81;79.59;101484.94;7391956;19;20361;-79
2023/09/07 01:46:56;;;;;;;6.50;3.50;;;;;;;17.76;79.50;101482.88;7386040;19;20398;-78
2023/09/07 01:49:24;;;;;;;5.50;3.80;;;;;;;17.70;79.95;101486.38;7389509;19;20715;-79
2023/09/07 01:51:52;;;;;;;7.00;3.33;;;;;;;17.65;80.24;101480.81;7387390;19;20701;-79
2023/09/07 01:54:21;;;;;;;7.05;3.50;;;;;;;17.64;80.52;101476.47;7386777;19;20931;-78
2023/09/07 01:56:48;;;;;;;5.70;3.43;;;;;;;17.64;80.29;101476.47;7385663;19;20464;-78
2023/09/07 01:59:15;;;;;;;6.70;3.70;;;;;;;17.61;80.50;101484.91;7389584;19;20368;-78
2023/09/07 02:01:42;;;;;;;5.38;3.50;;;;;;;17.57;80.71;101479.13;7389274;19;20340;-78
2023/09/07 02:04:09;;;;;;;5.40;3.65;;;;;;;17.52;80.96;101482.41;7390242;19;20372;-79
2023/09/07 02:06:36;;;;;;;4.93;3.40;;;;;;;17.48;80.96;101486.53;7389250;19;20405;-78
2023/09/07 02:09:04;;;;;;;7.00;3.53;;;;;;;17.45;81.16;101491.47;7387579;19;20963;-79
2023/09/07 02:11:31;;;;;;;7.93;3.72;;;;;;;17.39;81.32;101487.75;7381874;19;20784;-79
2023/09/07 02:13:58;;;;;;;4.82;3.50;;;;;;;17.33;81.58;101484.00;7389216;19;20352;-78
2023/09/07 02:16:25;;;;;;;5.28;3.65;;;;;;;17.30;81.77;101487.09;7387026;19;20683;-78
2023/09/07 02:19:01;;;;;;;6.45;3.65;;;;;;;17.24;82.30;101484.38;7388422;19;20671;-78
2023/09/07 02:21:28;;;;;;;5.40;3.47;;;;;;;17.20;82.37;101478.59;7389219;19;20440;-78
2023/09/07 02:23:54;;;;;;;5.65;3.33;;;;;;;17.15;82.40;101489.09;7389079;19;20356;-79
2023/09/07 02:26:21;;;;;;;6.05;3.60;;;;;;;17.07;82.98;101490.06;7389482;19;20397;-78
2023/09/07 02:28:48;;;;;;;5.33;3.77;;;;;;;17.03;83.09;101482.63;7386496;19;20360;-78
2023/09/07 02:31:15;;;;;;;6.07;3.53;;;;;;;16.99;83.16;101479.50;7385667;19;20375;-78
2023/09/07 02:33:42;;;;;;;7.63;4.20;;;;;;;16.96;83.19;101482.59;7386316;19;20410;-78
2023/09/07 02:36:09;;;;;;;5.90;4.28;;;;;;;16.92;83.49;101487.50;7387517;19;20356;-79
2023/09/07 02:38:36;;;;;;;5.32;3.92;;;;;;;16.89;83.57;101487.94;7387870;19;20397;-79
2023/09/07 02:41:03;;;;;;;7.82;4.15;;;;;;;16.88;83.77;101490.78;7386153;19;20378;-78
2023/09/07 02:43:30;;;;;;;6.43;4.13;;;;;;;16.86;83.72;101493.66;7385756;19;20398;-78
2023/09/07 02:45:58;;;;;;;7.70;4.00;;;;;;;16.84;83.80;101501.06;7385450;19;20904;-78
2023/09/07 02:48:26;;;;;;;5.82;3.90;;;;;;;16.83;83.86;101498.56;7387213;19;20368;-78
2023/09/07 02:50:53;;;;;;;5.90;3.80;;;;;;;16.81;84.05;101497.94;7382935;19;20360;-78
2023/09/07 02:53:22;;;;;;;8.32;4.10;;;;;;;16.81;83.88;101487.22;7386265;19;20397;-78
2023/09/07 02:55:49;;;;;;;5.15;3.80;;;;;;;16.77;83.85;101488.63;7385172;19;20730;-78
2023/09/07 02:58:16;;;;;;;5.95;4.25;;;;;;;16.77;83.93;101491.31;7385139;19;20417;-78
2023/09/07 03:00:44;;;;;;;7.90;3.97;;;;;;;16.77;84.11;101499.34;7386009;19;20390;-79
2023/09/07 03:03:13;;;;;;;7.85;4.15;;;;;;;16.80;84.44;101501.63;7378521;19;20409;-78
2023/09/07 03:05:42;;;;;;;6.13;3.95;;;;;;;16.81;84.31;101492.59;7380574;19;20349;-78
2023/09/07 03:08:09;;;;;;;5.22;3.70;;;;;;;16.82;84.26;101491.56;7380880;19;21064;-79
2023/09/07 03:10:39;;;;;;;6.78;4.00;;;;;;;16.82;84.02;101491.56;7379880;19;20374;-78
2023/09/07 03:13:07;;;;;;;6.30;4.23;;;;;;;16.80;83.97;101489.09;7376957;19;20372;-78
2023/09/07 03:15:35;;;;;;;8.65;4.25;;;;;;;16.79;84.06;101491.91;7381725;19;20959;-78
2023/09/07 03:18:05;;;;;;;8.40;4.10;;;;;;;16.78;84.20;101490.28;7379912;19;20376;-78
2023/09/07 03:20:34;;;;;;;5.70;4.00;;;;;;;16.75;83.87;101488.81;7383701;19;20453;-78
2023/09/07 03:23:02;;;;;;;5.53;4.10;;;;;;;16.68;83.82;101493.28;7379265;19;20865;-79
2023/09/07 03:25:29;;;;;;;6.25;4.35;;;;;;;16.66;84.26;101492.66;7381993;19;20367;-78
2023/09/07 03:27:56;;;;;;;7.18;4.50;;;;;;;16.61;84.10;101490.56;7373246;19;20368;-78
2023/09/07 03:30:23;;;;;;;4.90;4.30;;;;;;;16.59;84.40;101489.94;7377807;19;20360;-78
2023/09/07 03:32:52;;;;;;;7.80;4.80;;;;;;;16.59;84.58;101492.63;7374115;19;20352;-78
2023/09/07 03:35:20;;;;;;;6.80;4.40;;;;;;;16.58;84.64;101490.97;7377683;19;20375;-78
2023/09/07 03:37:47;;;;;;;7.00;5.03;;;;;;;16.58;84.92;101490.97;7380962;19;20427;-78
2023/09/07 03:40:14;;;;;;;6.38;4.80;;;;;;;16.59;85.00;101492.63;7375832;19;20371;-78
2023/09/07 03:42:43;;;;;;;5.55;4.43;;;;;;;16.57;85.04;101494.66;7377811;19;20855;-78
2023/09/07 03:45:11;;;;;;;7.20;4.40;;;;;;;16.60;85.19;101491.63;7375909;19;20372;-78
2023/09/07 03:47:38;;;;;;;6.45;4.47;;;;;;;16.61;85.31;101492.44;7374498;19;20376;-78
2023/09/07 03:50:06;;;;;;;7.68;4.80;;;;;;;16.62;85.59;101489.56;7377757;19;20344;-78
2023/09/07 03:52:34;;;;;;;7.75;4.63;;;;;;;16.62;85.65;101496.78;7377972;19;20682;-78
2023/09/07 03:55:03;;;;;;;8.40;4.93;;;;;;;16.62;85.74;101494.09;7379570;19;20360;-78
2023/09/07 03:57:30;;;;;;;6.10;5.00;;;;;;;16.63;85.70;101498.44;7377111;19;20786;-78
2023/09/07 03:59:58;;;;;;;7.65;5.00;;;;;;;16.61;85.85;101490.56;7371280;19;20388;-78
2023/09/07 04:02:25;;;;;;;7.60;4.80;;;;;;;16.62;85.88;101492.25;7377112;19;20446;-78
2023/09/07 04:04:55;;;;;;;8.40;5.22;;;;;;;16.62;85.96;101496.78;7375525;19;20360;-78
2023/09/07 04:07:22;;;;;;;8.05;4.90;;;;;;;16.62;86.48;101497.59;7372141;19;20377;-78
2023/09/07 04:09:50;;;;;;;6.18;4.80;;;;;;;16.62;86.26;101502.97;7378724;19;20772;-78
2023/09/07 04:12:17;;;;;;;10.88;5.57;;;;;;;16.62;86.18;101497.59;7378814;19;20394;-78
2023/09/07 04:14:44;;;;;;;9.20;5.35;;;;;;;16.63;86.41;101499.25;7392030;19;20853;-78
2023/09/07 04:17:12;;;;;;;7.72;5.00;;;;;;;16.64;86.27;101484.84;7393779;19;20508;-78
2023/09/07 04:19:39;;;;;;;5.40;4.55;;;;;;;16.64;86.10;101490.19;7395745;19;20354;-78
2023/09/07 04:22:06;;;;;;;6.65;5.00;;;;;;;16.65;86.03;101496.38;7394424;19;20775;-78
2023/09/07 04:24:33;;;;;;;6.97;4.77;;;;;;;16.66;86.24;101496.19;7380232;19;20428;-77
2023/09/07 04:27:01;;;;;;;7.07;4.80;;;;;;;16.66;86.09;101504.22;7386692;19;20404;-79
2023/09/07 04:29:30;;;;;;;6.50;4.78;;;;;;;16.64;86.08;101500.91;7388435;19;20369;-79
2023/09/07 04:31:57;;;;;;;7.82;4.63;;;;;;;16.64;85.76;101500.91;7384037;19;20372;-79
2023/09/07 04:34:24;;;;;;;7.90;4.93;;;;;;;16.63;85.72;101498.44;7381807;19;21045;-79
2023/09/07 04:36:53;;;;;;;7.68;4.95;;;;;;;16.60;85.51;101499.66;7386093;19;20373;-80
2023/09/07 04:39:20;;;;;;;7.03;4.78;;;;;;;16.59;85.29;101503.34;7389879;19;20872;-80
2023/09/07 04:41:47;;;;;;;5.93;4.40;;;;;;;16.55;85.43;101501.25;7393101;19;20409;-79
2023/09/07 04:44:14;;;;;;;7.95;4.50;;;;;;;16.48;85.25;101506.56;7387948;19;20352;-79
2023/09/07 04:46:42;;;;;;;7.38;4.68;;;;;;;16.43;85.58;101504.47;7393761;19;20358;-79
2023/09/07 04:49:10;;;;;;;6.63;4.80;;;;;;;16.44;85.63;101511.47;7389331;19;20421;-81
2023/09/07 04:51:37;;;;;;;8.27;4.68;;;;;;;16.49;85.57;101503.69;7391995;19;20380;-81
2023/09/07 04:54:04;;;;;;;6.45;4.80;;;;;;;16.56;85.61;101503.75;7392011;19;20385;-79
2023/09/07 04:56:31;;;;;;;8.57;4.90;;;;;;;16.61;85.73;101508.50;7389866;19;20485;-79
2023/09/07 04:58:58;;;;;;;6.38;4.85;;;;;;;16.63;85.35;101509.97;7383849;19;20452;-77
2023/09/07 05:01:26;;;;;;;7.20;4.38;;;;;;;16.66;85.06;101503.38;7381691;19;20377;-78
2023/09/07 05:03:55;;;;;;;9.05;4.63;;;;;;;16.68;84.95;101512.91;7383086;19;20363;-78
2023/09/07 05:06:22;;;;;;;9.45;5.20;;;;;;;16.71;84.78;101507.13;7373206;19;20357;-79
2023/09/07 05:08:51;;;;;;;6.93;5.00;;;;;;;16.75;84.60;101506.75;7380270;19;20374;-78
2023/09/07 05:11:18;;;;;;;6.95;4.80;;;;;;;16.78;84.31;101506.34;7380357;19;20376;-78
2023/09/07 05:13:45;;;;;;;6.85;4.85;;;;;;;16.84;84.48;101505.59;7382747;19;20371;-79
2023/09/07 05:16:12;;;;;;;8.65;4.72;;;;;;;16.87;84.25;101505.19;7384207;19;20380;-79
2023/09/07 05:18:41;;;;;;;8.83;4.97;;;;;;;16.90;83.85;101512.88;7383619;19;20352;-79
2023/09/07 05:21:14;;;;;;;7.32;4.68;;;;;;;16.94;83.71;101508.78;7384093;19;20353;-79
2023/09/07 05:23:44;;;;;;;8.88;5.47;;;;;;;16.98;83.47;101509.19;7389618;19;20356;-79
2023/09/07 05:26:11;;;;;;;8.63;5.10;;;;;;;17.04;83.44;101511.94;7381302;19;20356;-79
2023/09/07 05:28:41;;;;;;;9.25;5.13;;;;;;;17.07;83.13;101516.06;7384480;19;20836;-78
2023/09/07 05:31:09;;;;;;;7.40;4.80;;;;;;;17.10;83.30;101508.44;7384189;19;20345;-78
2023/09/07 05:33:36;;;;;;;9.13;5.50;;;;;;;17.16;83.22;101509.50;7387336;19;20695;-77
2023/09/07 05:36:03;;;;;;;7.97;5.28;;;;;;;17.23;83.22;101506.84;7379598;19;20357;-77
2023/09/07 05:38:30;;;;;;;9.87;5.17;;;;;;;17.30;83.10;101505.84;7372345;19;20369;-77
2023/09/07 05:41:00;;;;;;;7.53;5.55;;;;;;;17.37;83.13;101505.88;7377787;19;20397;-77
2023/09/07 05:43:27;;;;;;;9.75;5.45;;;;;;;17.49;82.63;101509.66;7375948;19;20377;-77
2023/09/07 05:45:54;;;;;;;6.53;4.47;;;;;;;17.58;82.81;101512.97;7379073;19;20416;-77
2023/09/07 05:48:21;;;;;;;7.15;5.13;;;;;;;17.71;82.19;101514.88;7376737;19;20357;-77
2023/09/07 05:50:48;;;;;;;7.13;5.20;;;;;;;17.81;81.95;101507.28;7377780;19;20356;-77
2023/09/07 05:53:15;;;;;;;8.70;5.32;;;;;;;17.88;81.33;101508.13;7378881;19;20370;-77
2023/09/07 05:55:42;;;;;;;6.87;4.77;;;;;;;18.00;81.26;101504.84;7383097;19;20368;-77
2023/09/07 05:58:09;;;;;;;6.97;4.82;;;;;;;18.17;81.63;101506.13;7384433;19;20417;-75
2023/09/07 06:00:41;;;;;;;9.18;5.60;;;;;;;18.42;81.15;101513.56;7383313;19;20360;-75
2023/09/07 06:03:09;;;;;;;7.13;5.45;;;;;;;18.68;81.70;101508.16;7383186;19;20383;-75
2023/09/07 06:05:38;;;;;;;8.87;4.80;;;;;;;19.00;82.63;101515.56;7380816;19;20332;-75
2023/09/07 06:08:07;;;;;;;7.03;4.88;;;;;;;19.32;81.57;101514.66;7386822;19;20340;-74
2023/09/07 06:10:35;;;;;;;7.07;5.17;;;;;;;19.73;79.11;101515.31;7383861;19;20351;-74
2023/09/07 06:13:03;;;;;;;7.90;5.80;;;;;;;20.00;76.52;101515.13;7389156;19;20377;-74
2023/09/07 06:15:31;;;;;;;8.00;5.22;;;;;;;20.21;74.86;101517.50;7392061;19;20336;-74
2023/09/07 06:17:58;;;;;;;9.35;5.22;;;;;;;20.40;73.61;101514.84;7390950;19;20870;-74
2023/09/07 06:20:25;;;;;;;7.78;4.90;;;;;;;20.68;72.62;101517.94;7391500;19;20356;-74
2023/09/07 06:22:53;;;;;;;7.80;5.57;;;;;;;20.87;71.56;101520.66;7390170;19;20365;-74
2023/09/07 06:25:22;;;;;;;7.15;5.10;;;;;;;21.06;70.08;101527.72;7391721;19;20442;-74
2023/09/07 06:27:49;;;;;;;8.02;4.57;;;;;;;21.26;69.64;101521.28;7391604;19;20335;-74
2023/09/07 06:30:17;;;;;;;7.30;4.60;;;;;;;21.46;69.13;101529.97;7391321;19;20379;-74
2023/09/07 06:32:44;;;;;;;7.63;4.50;;;;;;;21.52;68.42;101537.16;7389910;19;20447;-74
2023/09/07 06:35:11;;;;;;;8.63;4.88;;;;;;;21.66;68.17;101531.59;7396054;19;20386;-74
2023/09/07 06:37:40;;;;;;;7.70;6.00;;;;;;;21.76;67.99;101532.72;7393110;19;20368;-74
2023/09/07 06:40:10;;;;;;;8.57;5.05;;;;;;;21.91;67.56;101545.78;7389294;19;20938;-74
2023/09/07 06:42:37;;;;;;;6.82;5.07;;;;;;;22.08;67.08;101545.13;7389503;19;20364;-75
2023/09/07 06:45:10;;;;;;;8.18;4.72;;;;;;;22.17;66.96;101547.28;7394833;19;20690;-76
2023/09/07 06:47:38;;;;;;;13.55;12.10;;;;;;;22.33;66.29;101539.56;7390659;19;20379;-75
2023/09/07 06:50:06;;;;;;;8.52;5.10;;;;;;;22.49;65.02;101535.38;7391854;19;20385;-75
2023/09/07 06:52:33;;;;;;;8.20;5.00;;;;;;;22.60;64.19;101539.94;7392057;19;20730;-74
2023/09/07 06:55:01;;;;;;;10.13;6.15;;;;;;;22.72;64.02;101542.69;7390948;19;20370;-74
2023/09/07 06:57:28;;;;;;;7.93;4.82;;;;;;;22.84;63.99;101539.94;7387770;19;20368;-74
2023/09/07 06:59:56;;;;;;;9.23;5.23;;;;;;;23.03;63.78;101538.78;7390163;19;20447;-74
2023/09/07 07:02:23;;;;;;;7.67;4.87;;;;;;;23.23;63.97;101545.69;7391626;19;21334;-74
2023/09/07 07:04:50;;;;;;;6.70;5.00;;;;;;;23.34;62.79;101539.44;7390929;19;20379;-74
2023/09/07 07:07:18;;;;;;;5.72;4.38;;;;;;;23.49;62.43;101536.22;7389970;19;20360;-74
2023/09/07 07:09:45;;;;;;;17.37;13.97;;;;;;;23.69;62.10;101535.78;7385897;19;20372;-74
2023/09/07 07:12:12;;;;;;;7.32;5.18;;;;;;;23.81;61.31;101542.00;7388909;19;20361;-74
2023/09/07 07:14:40;;;;;;;6.47;4.37;;;;;;;23.93;61.13;101542.78;7388084;19;20380;-74
2023/09/07 07:17:07;;;;;;;8.18;5.57;;;;;;;24.05;60.82;101539.16;7386593;19;20432;-74
2023/09/07 07:19:35;;;;;;;8.32;4.70;;;;;;;24.19;60.42;101541.31;7380872;19;20340;-74
2023/09/07 07:22:03;;;;;;;9.32;6.95;;;;;;;24.30;60.37;101541.50;7389141;19;20376;-74
2023/09/07 07:24:31;;;;;;;5.63;4.20;;;;;;;24.39;59.48;101540.81;7389566;19;20359;-74
2023/09/07 07:26:59;;;;;;;18.60;16.63;;;;;;;24.49;59.61;101539.38;7391795;19;20382;-74
2023/09/07 07:29:28;;;;;;;8.13;4.50;;;;;;;24.62;59.25;101529.00;7388948;19;20364;-74
2023/09/07 07:31:59;;;;;;;16.17;14.50;;;;;;;24.75;59.46;101538.69;7387648;19;20369;-74
2023/09/07 07:34:26;;;;;;;18.55;16.52;;;;;;;24.85;58.65;101537.22;7392810;19;20373;-74
2023/09/07 07:36:54;;;;;;;10.30;6.88;;;;;;;24.95;58.93;101537.31;7389118;19;20321;-74
2023/09/07 07:39:22;;;;;;;8.82;5.85;;;;;;;25.00;58.14;101534.69;7387351;19;20411;-74
2023/09/07 07:41:49;;;;;;;5.30;4.40;;;;;;;25.08;57.78;101542.41;7391780;19;20384;-74
2023/09/07 07:44:17;;;;;;;7.22;4.57;;;;;;;25.19;57.36;101543.34;7389494;19;21105;-74
2023/09/07 07:46:44;;;;;;;5.67;4.10;;;;;;;25.29;56.86;101548.09;7384232;19;20742;-74
2023/09/07 07:49:12;;;;;;;16.73;14.52;;;;;;;25.40;56.73;101550.72;7388690;19;20364;-74
2023/09/07 07:51:40;;;;;;;7.50;5.85;;;;;;;25.52;56.08;101549.75;7388165;19;20376;-74
2023/09/07 07:54:07;;;;;;;8.43;5.15;;;;;;;25.62;56.27;101563.44;7389728;19;20361;-75
2023/09/07 07:56:34;;;;;;;7.70;4.30;;;;;;;25.69;55.80;101549.66;7387762;19;20356;-75
2023/09/07 07:59:03;;;;;;;7.50;4.63;;;;;;;25.76;55.40;101553.81;7385725;19;20356;-75
2023/09/07 08:01:30;;;;;;;7.55;4.45;;;;;;;25.83;55.47;101559.88;7387949;19;20364;-75
2023/09/07 08:03:58;;;;;;;6.90;4.43;;;;;;;25.87;55.06;101552.03;7393599;19;20360;-75
2023/09/07 08:06:30;;;;;;;7.68;5.15;;;;;;;25.94;54.84;101549.13;7388388;19;20711;-75
2023/09/07 08:08:57;;;;;;;5.43;3.72;;;;;;;26.01;54.80;101547.84;7386957;19;20348;-75
2023/09/07 08:11:26;;;;;;;8.20;5.63;;;;;;;26.06;54.51;101547.06;7382704;19;20381;-76
2023/09/07 08:13:53;;;;;;;7.72;4.07;;;;;;;26.15;53.75;101544.72;7389002;19;20351;-75
2023/09/07 08:16:20;;;;;;;6.38;4.00;;;;;;;26.24;53.85;101541.25;7398648;19;20371;-75
2023/09/07 08:18:48;;;;;;;12.48;9.10;;;;;;;26.31;53.10;101543.75;7397688;19;20432;-75
2023/09/07 08:21:17;;;;;;;9.27;3.80;;;;;;;26.36;53.39;101540.25;7392537;19;20354;-75
2023/09/07 08:23:45;;;;;;;5.35;3.95;;;;;;;26.44;52.85;101539.78;7397869;19;20368;-75
2023/09/07 08:26:14;;;;;;;7.45;5.43;;;;;;;26.48;52.45;101540.06;7392739;19;20887;-75
2023/09/07 08:28:46;;;;;;;8.20;5.18;;;;;;;26.48;52.02;101532.72;7396604;19;20670;-76
2023/09/07 08:31:20;;;;;;;8.63;4.23;;;;;;;26.54;52.58;101536.28;7396144;19;20452;-75
2023/09/07 08:33:51;;;;;;;5.22;3.92;;;;;;;26.61;52.27;101531.50;7393745;19;20375;-76
2023/09/07 08:36:22;;;;;;;6.32;3.53;;;;;;;26.67;52.39;101532.31;7393545;19;20364;-75
2023/09/07 08:42:25;;;;;;;9.47;3.80;;;;;;;26.78;52.21;101543.03;7396844;19;20903;-75
2023/09/07 08:44:58;;;;;;;6.95;3.90;;;;;;;26.84;51.08;101541.13;7396579;19;20368;-75
2023/09/07 08:47:27;;;;;;;5.63;3.67;;;;;;;26.90;50.82;101542.00;7396274;19;20444;-75
2023/09/07 08:49:56;;;;;;;6.83;3.60;;;;;;;26.98;51.01;101541.50;7395039;19;20364;-75
2023/09/07 08:52:23;;;;;;;9.70;4.05;;;;;;;27.07;50.35;101542.63;7395832;19;20749;-75
2023/09/07 08:54:52;;;;;;;6.38;4.07;;;;;;;27.17;50.50;101541.84;7392051;19;20369;-75
2023/09/07 08:57:21;;;;;;;12.00;10.00;;;;;;;27.24;50.15;101547.91;7387959;19;20376;-75
2023/09/07 08:59:49;;;;;;;50.55;45.20;;;;;;;27.29;50.01;101547.09;7391541;19;20848;-75
2023/09/07 09:02:16;;;;;;;7.47;5.78;;;;;;;27.28;49.73;101546.28;7396916;19;20364;-75
2023/09/07 09:04:43;;;;;;;6.32;3.90;;;;;;;27.31;49.60;101553.09;7390174;19;20719;-75
2023/09/07 09:07:10;;;;;;;19.35;4.93;;;;;;;27.31;49.45;101545.75;7389319;19;20364;-75
2023/09/07 09:09:38;;;;;;;5.28;3.45;;;;;;;27.30;49.93;101544.09;7393452;19;20452;-79
2023/09/07 09:12:12;;;;;;;6.40;3.35;;;;;;;27.34;49.85;101549.84;7389518;19;20348;-78
2023/09/07 09:14:43;;;;;;;6.90;3.33;;;;;;;27.40;49.53;101535.16;7396987;19;20385;-78
2023/09/07 09:17:14;;;;;;;9.75;3.50;;;;;;;27.41;49.00;101542.25;7398207;19;20363;-78
2023/09/07 09:19:41;;;;;;;5.70;3.30;;;;;;;27.49;48.99;101533.53;7393062;19;20376;-78
2023/09/07 09:22:10;;;;;;;13.17;3.87;;;;;;;27.56;49.21;101539.56;7392612;19;20377;-78
2023/09/07 09:24:37;;;;;;;6.38;3.15;;;;;;;27.60;49.16;101534.38;7393133;19;20363;-78
2023/09/07 09:27:04;;;;;;;6.75;3.28;;;;;;;27.73;49.23;101546.69;7391099;19;20374;-78
2023/09/07 09:29:35;;;;;;;7.03;3.55;;;;;;;27.79;48.40;101537.44;7392241;19;20411;-78
2023/09/07 09:32:06;;;;;;;5.40;3.20;;;;;;;27.83;48.55;101541.25;7398151;19;20357;-78
2023/09/07 09:34:35;;;;;;;4.32;3.53;;;;;;;27.93;48.28;101541.31;7398185;19;20364;-78
2023/09/07 09:37:03;;;;;;;5.60;3.45;;;;;;;28.03;47.84;101541.31;7399976;19;20927;-78
2023/09/07 09:39:30;;;;;;;5.83;3.40;;;;;;;28.13;46.88;101531.50;7393701;19;20383;-79
2023/09/07 09:41:58;;;;;;;4.47;2.83;;;;;;;28.23;46.75;101523.31;7398727;19;20365;-78
2023/09/07 09:44:29;;;;;;;10.10;3.50;;;;;;;28.28;45.97;101526.03;7397008;19;20363;-77
2023/09/07 09:46:57;;;;;;;5.30;3.40;;;;;;;28.30;45.81;101523.84;7395601;19;20773;-78
2023/09/07 09:49:26;;;;;;;6.63;3.65;;;;;;;28.35;46.17;101518.41;7396561;19;20909;-78
2023/09/07 09:51:53;;;;;;;5.43;3.25;;;;;;;28.50;46.77;101517.59;7397120;19;20360;-77
2023/09/07 09:54:22;;;;;;;3.72;2.75;;;;;;;28.64;46.21;101520.53;7394985;19;20383;-78
2023/09/07 09:56:49;;;;;;;4.90;3.30;;;;;;;28.77;45.86;101506.31;7394454;19;20780;-78
2023/09/07 09:59:15;;;;;;;5.28;2.90;;;;;;;28.85;46.81;101508.47;7392424;19;20385;-78
2023/09/07 10:01:50;;;;;;;5.28;3.38;;;;;;;28.99;46.03;101507.91;7392736;19;21079;-78
2023/09/07 10:04:18;;;;;;;4.33;3.00;;;;;;;29.10;45.57;101509.50;7396919;19;20382;-78
2023/09/07 10:07:02;;;;;;;5.30;3.17;;;;;;;29.25;45.81;101512.16;7397498;19;21194;-78
2023/09/07 10:09:32;;;;;;;4.53;3.17;;;;;;;29.37;45.94;101503.63;7396618;19;20359;-78
2023/09/07 10:12:03;;;;;;;6.53;3.83;;;;;;;29.53;45.48;101507.09;7395618;19;20928;-78
2023/09/07 10:14:41;;;;;;;5.88;3.40;;;;;;;29.59;44.60;101502.41;7395124;19;20363;-78
2023/09/07 10:17:09;;;;;;;7.60;3.65;;;;;;;29.71;44.27;101507.53;7395292;19;20356;-78
2023/09/07 10:19:38;;;;;;;4.82;3.20;;;;;;;29.78;44.73;101513.53;7396196;19;20359;-77
2023/09/07 10:22:05;;;;;;;4.40;2.88;;;;;;;29.80;43.43;101503.94;7395911;19;20360;-78
2023/09/07 10:24:39;;;;;;;6.85;3.30;;;;;;;29.88;43.04;101502.50;7393059;19;20356;-78
2023/09/07 10:27:08;;;;;;;5.72;3.00;;;;;;;29.95;43.75;101505.72;7396934;19;20379;-78
2023/09/07 10:29:46;;;;;;;7.60;3.53;;;;;;;29.99;43.99;101498.59;7392821;19;20429;-78
2023/09/07 10:32:14;;;;;;;6.37;3.03;;;;;;;30.06;42.88;101498.25;7392347;19;20426;-78
2023/09/07 10:34:46;;;;;;;5.07;3.25;;;;;;;30.22;43.86;101496.19;7395308;19;20843;-78
2023/09/07 10:37:14;;;;;;;7.20;3.33;;;;;;;30.34;42.79;101499.38;7390826;19;20363;-78
2023/09/07 10:39:43;;;;;;;5.80;3.33;;;;;;;30.37;42.52;101493.34;7394594;19;20852;-78
2023/09/07 10:42:26;;;;;;;5.70;3.45;;;;;;;30.45;42.04;101487.25;7393034;19;20360;-78
2023/09/07 10:44:53;;;;;;;6.45;3.10;;;;;;;30.52;41.92;101494.25;7396994;19;20486;-77
2023/09/07 10:47:21;;;;;;;10.18;3.30;;;;;;;30.62;41.88;101491.41;7393431;19;20340;-78
2023/09/07 10:49:48;;;;;;;5.97;3.10;;;;;;;30.66;41.21;101482.31;7393540;19;20377;-78
2023/09/07 10:52:15;;;;;;;6.03;3.30;;;;;;;30.72;41.02;101488.56;7394320;19;20365;-78
2023/09/07 10:54:42;;;;;;;5.20;3.45;;;;;;;30.76;40.85;101489.63;7393147;19;20373;-78
2023/09/07 10:57:10;;;;;;;5.47;2.90;;;;;;;30.74;40.67;101485.56;7392509;19;20367;-78
2023/09/07 10:59:37;;;;;;;6.77;3.23;;;;;;;30.76;40.41;101480.59;7393998;19;20382;-78
2023/09/07 11:02:04;;;;;;;5.60;3.10;;;;;;;30.81;40.41;101481.31;7394534;19;20373;-78
2023/09/07 11:04:32;;;;;;;6.50;3.05;;;;;;;30.91;40.08;101477.69;7395161;19;20871;-78
2023/09/07 11:07:00;;;;;;;6.55;3.30;;;;;;;30.96;39.20;101476.81;7394313;19;20361;-78
2023/09/07 11:09:29;;;;;;;6.10;3.00;;;;;;;31.01;40.40;101471.28;7393332;19;20351;-78
2023/09/07 11:11:56;;;;;;;6.15;3.00;;;;;;;31.01;39.54;101466.59;7388243;19;20404;-78
2023/09/07 11:14:29;;;;;;;4.43;2.97;;;;;;;31.08;39.75;101471.72;7393899;19;20371;-79
2023/09/07 11:16:56;;;;;;;5.25;3.17;;;;;;;31.16;38.95;101471.06;7394256;19;20371;-79
2023/09/07 11:19:23;;;;;;;4.72;3.15;;;;;;;31.24;39.16;101462.19;7392542;19;20332;-78
2023/09/07 11:21:53;;;;;;;4.65;2.90;;;;;;;31.32;39.45;101457.13;7389711;19;20811;-78
2023/09/07 11:24:20;;;;;;;7.30;3.25;;;;;;;31.42;38.45;101462.47;7391989;19;20344;-78
2023/09/07 11:26:47;;;;;;;5.53;3.13;;;;;;;31.56;38.92;101457.91;7392473;19;20966;-78
2023/09/07 11:29:15;;;;;;;5.55;3.30;;;;;;;31.62;38.49;101461.34;7391111;19;20378;-78
2023/09/07 11:31:43;;;;;;;6.25;3.00;;;;;;;31.65;38.33;101466.25;7393657;19;20677;-78